createdAt,value
2019-03-10T00:00:33.306Z,0.57
2019-03-10T00:03:01.715Z,0.50
2019-03-10T00:05:30.133Z,0.40
2019-03-10T00:07:59.573Z,0.40
2019-03-10T00:10:28.002Z,0.70
2019-03-10T00:12:56.641Z,0.40
2019-03-10T00:15:25.388Z,0.50
2019-03-10T00:17:53.926Z,0.60
2019-03-10T00:20:22.350Z,0.50
2019-03-10T00:22:50.761Z,0.40
2019-03-10T00:25:19.470Z,0.80
2019-03-10T00:27:47.918Z,0.40
2019-03-10T00:30:19.390Z,0.40
2019-03-10T00:32:48.051Z,0.43
2019-03-10T00:35:16.486Z,0.40
2019-03-10T00:37:44.893Z,0.40
2019-03-10T00:40:34.583Z,0.40
2019-03-10T00:43:25.404Z,0.40
2019-03-10T00:46:15.723Z,0.50
2019-03-10T00:48:52.725Z,0.50
2019-03-10T00:51:58.924Z,0.40
2019-03-10T00:54:27.345Z,0.70
2019-03-10T00:56:55.761Z,0.40
2019-03-10T00:59:24.720Z,0.60
2019-03-10T01:01:53.174Z,0.50
2019-03-10T01:04:21.842Z,0.40
2019-03-10T01:06:51.050Z,0.50
2019-03-10T01:09:19.692Z,0.40
2019-03-10T01:11:48.430Z,0.40
2019-03-10T01:14:16.889Z,0.50
2019-03-10T01:16:46.054Z,0.60
2019-03-10T01:19:14.906Z,0.40
2019-03-10T01:21:44.390Z,0.60
2019-03-10T01:24:12.877Z,0.47
2019-03-10T01:26:42.401Z,0.60
2019-03-10T01:29:10.828Z,0.40
2019-03-10T01:32:02.250Z,0.40
2019-03-10T01:34:42.713Z,0.47
2019-03-10T01:37:11.116Z,0.40
2019-03-10T01:39:39.546Z,0.50
2019-03-10T01:42:07.961Z,0.70
2019-03-10T01:44:36.633Z,0.40
2019-03-10T01:47:05.120Z,0.40
2019-03-10T01:49:33.537Z,0.73
2019-03-10T01:52:02.203Z,0.50
2019-03-10T01:54:30.617Z,0.53
2019-03-10T01:56:59.289Z,0.40
2019-03-10T01:59:27.705Z,0.50
2019-03-10T02:01:56.138Z,0.40
2019-03-10T02:04:24.553Z,0.50
2019-03-10T02:06:52.985Z,0.50
2019-03-10T02:09:21.393Z,0.73
2019-03-10T02:11:49.822Z,0.50
2019-03-10T02:14:18.235Z,0.50
2019-03-10T02:16:46.670Z,0.50
2019-03-10T02:19:15.132Z,0.43
2019-03-10T02:21:43.632Z,0.50
2019-03-10T02:24:12.315Z,0.47
2019-03-10T02:26:40.750Z,0.40
2019-03-10T02:29:09.202Z,0.40
2019-03-10T02:31:37.684Z,1.00
2019-03-10T02:34:06.393Z,0.90
2019-03-10T02:36:35.082Z,0.40
2019-03-10T02:39:05.161Z,0.50
2019-03-10T02:41:33.588Z,0.50
2019-03-10T02:44:02.011Z,0.40
2019-03-10T02:46:30.685Z,0.40
2019-03-10T02:48:59.156Z,0.50
2019-03-10T02:51:27.607Z,0.40
2019-03-10T02:53:56.327Z,0.50
2019-03-10T02:56:24.824Z,0.47
2019-03-10T02:58:53.315Z,0.50
2019-03-10T03:01:21.776Z,0.40
2019-03-10T03:03:50.203Z,0.50
2019-03-10T03:06:18.726Z,0.40
2019-03-10T03:08:47.175Z,0.30
2019-03-10T03:11:15.922Z,0.40
2019-03-10T03:13:44.407Z,0.57
2019-03-10T03:16:12.896Z,0.40
2019-03-10T03:18:41.371Z,0.40
2019-03-10T03:21:09.796Z,0.30
2019-03-10T03:23:38.247Z,0.40
2019-03-10T03:26:06.743Z,0.50
2019-03-10T03:28:35.167Z,0.40
2019-03-10T03:31:03.584Z,0.50
2019-03-10T03:33:32.012Z,0.40
2019-03-10T03:36:06.281Z,0.40
2019-03-10T03:38:37.706Z,0.33
2019-03-10T03:41:14.968Z,0.40
2019-03-10T03:43:43.615Z,0.40
2019-03-10T03:46:12.329Z,0.40
2019-03-10T03:48:40.776Z,0.40
2019-03-10T03:51:09.269Z,0.70
2019-03-10T03:53:37.704Z,0.73
2019-03-10T03:56:06.232Z,0.40
2019-03-10T03:58:34.624Z,0.40
2019-03-10T04:01:04.758Z,0.40
2019-03-10T04:03:33.170Z,0.60
2019-03-10T04:06:01.593Z,0.40
2019-03-10T04:08:30.030Z,0.40
2019-03-10T04:10:58.441Z,0.40
2019-03-10T04:13:26.890Z,0.40
2019-03-10T04:15:55.559Z,0.50
2019-03-10T04:18:24.228Z,0.40
2019-03-10T04:20:52.699Z,0.40
2019-03-10T04:23:21.134Z,0.50
2019-03-10T04:25:49.547Z,0.40
2019-03-10T04:28:18.207Z,0.80
2019-03-10T04:30:46.882Z,0.40
2019-03-10T04:33:15.354Z,0.40
2019-03-10T04:35:44.023Z,0.40
2019-03-10T04:38:12.442Z,0.40
2019-03-10T04:40:41.104Z,0.63
2019-03-10T04:43:09.787Z,0.40
2019-03-10T04:45:38.242Z,0.57
2019-03-10T04:48:06.907Z,0.50
2019-03-10T04:50:35.355Z,0.60
2019-03-10T04:53:03.777Z,0.60
2019-03-10T04:55:36.772Z,0.53
2019-03-10T04:58:12.865Z,0.60
2019-03-10T05:00:42.850Z,0.50
2019-03-10T05:03:11.378Z,0.73
2019-03-10T05:05:40.011Z,0.53
2019-03-10T05:08:08.499Z,0.70
2019-03-10T05:10:37.151Z,0.90
2019-03-10T05:13:05.705Z,0.50
2019-03-10T05:15:34.369Z,0.60
2019-03-10T05:18:02.826Z,0.50
2019-03-10T05:20:31.493Z,0.73
2019-03-10T05:23:28.677Z,0.40
2019-03-10T05:25:57.476Z,0.70
2019-03-10T05:28:26.005Z,0.60
2019-03-10T05:30:54.442Z,0.60
2019-03-10T05:33:22.867Z,0.73
2019-03-10T05:35:51.535Z,0.50
2019-03-10T05:38:20.177Z,0.60
2019-03-10T05:40:48.626Z,0.60
2019-03-10T05:43:17.302Z,0.50
2019-03-10T05:45:45.745Z,0.60
2019-03-10T05:48:14.166Z,0.50
2019-03-10T05:50:42.579Z,0.50
2019-03-10T05:53:11.026Z,0.50
2019-03-10T05:55:39.460Z,0.90
2019-03-10T05:58:08.132Z,0.70
2019-03-10T06:00:42.614Z,1.10
2019-03-10T06:03:06.974Z,0.80
2019-03-10T06:05:35.390Z,0.83
2019-03-10T06:08:04.049Z,1.00
2019-03-10T06:10:32.497Z,1.97
2019-03-10T06:13:00.920Z,3.03
2019-03-10T06:15:29.591Z,2.90
2019-03-10T06:17:58.052Z,2.57
2019-03-10T06:20:26.797Z,2.60
2019-03-10T06:22:55.458Z,1.23
2019-03-10T06:25:23.878Z,1.53
2019-03-10T06:27:52.294Z,0.80
2019-03-10T06:30:20.701Z,0.63
2019-03-10T06:32:49.117Z,0.70
2019-03-10T06:35:17.533Z,0.50
2019-03-10T06:37:45.958Z,0.90
2019-03-10T06:40:14.365Z,0.70
2019-03-10T06:42:42.810Z,0.50
2019-03-10T06:45:11.217Z,0.67
2019-03-10T06:47:39.633Z,0.70
2019-03-10T06:50:12.206Z,0.57
2019-03-10T06:52:40.322Z,0.50
2019-03-10T06:55:08.983Z,0.67
2019-03-10T06:57:37.466Z,0.60
2019-03-10T07:00:11.627Z,0.40
2019-03-10T07:02:40.045Z,0.50
2019-03-10T07:05:10.627Z,0.60
2019-03-10T07:07:39.045Z,0.50
2019-03-10T07:10:15.151Z,0.60
2019-03-10T07:12:43.607Z,1.10
2019-03-10T07:15:13.169Z,0.50
2019-03-10T07:17:41.988Z,0.43
2019-03-10T07:20:15.646Z,0.70
2019-03-10T07:22:44.117Z,0.47
2019-03-10T07:25:12.597Z,0.80
2019-03-10T07:27:48.611Z,0.70
2019-03-10T07:30:30.407Z,0.43
2019-03-10T07:33:18.689Z,0.70
2019-03-10T07:35:57.661Z,1.20
2019-03-10T07:38:27.725Z,0.80
2019-03-10T07:41:00.725Z,0.40
2019-03-10T07:43:30.813Z,0.50
2019-03-10T07:46:17.363Z,0.50
2019-03-10T07:48:50.369Z,0.50
2019-03-10T07:51:26.470Z,0.40
2019-03-10T07:53:59.465Z,0.50
2019-03-10T07:56:29.834Z,0.50
2019-03-10T07:58:59.888Z,0.40
2019-03-10T08:01:40.018Z,0.40
2019-03-10T08:04:26.282Z,0.40
2019-03-10T08:07:13.024Z,0.40
2019-03-10T08:09:55.462Z,0.50
2019-03-10T08:12:25.843Z,0.40
2019-03-10T08:14:59.084Z,0.40
2019-03-10T08:17:32.238Z,0.40
2019-03-10T08:20:20.760Z,0.40
2019-03-10T08:23:07.242Z,0.30
2019-03-10T08:25:37.427Z,0.40
2019-03-10T08:28:23.815Z,0.40
2019-03-10T08:31:10.463Z,0.50
2019-03-10T08:33:55.689Z,0.40
2019-03-10T08:36:36.201Z,0.50
2019-03-10T08:39:14.646Z,0.40
2019-03-10T08:41:47.917Z,0.63
2019-03-10T08:44:20.357Z,0.50
2019-03-10T08:53:39.690Z,0.40
2019-03-10T08:56:18.361Z,0.60
2019-03-10T08:59:04.796Z,0.40
2019-03-10T09:01:34.977Z,0.50
2019-03-10T09:04:05.100Z,0.47
2019-03-10T09:06:35.171Z,0.67
2019-03-10T09:09:08.059Z,0.40
2019-03-10T09:11:43.908Z,0.50
2019-03-10T09:14:29.993Z,0.50
2019-03-10T09:17:11.619Z,0.50
2019-03-10T09:19:41.681Z,0.73
2019-03-10T09:22:11.768Z,0.47
2019-03-10T09:24:44.247Z,0.40
2019-03-10T09:27:20.271Z,0.50
2019-03-10T09:29:56.055Z,0.40
2019-03-10T09:32:36.921Z,0.50
2019-03-10T09:35:10.831Z,0.50
2019-03-10T09:37:55.638Z,0.40
2019-03-10T09:40:28.449Z,0.50
2019-03-10T09:43:07.531Z,0.40
2019-03-10T09:45:46.775Z,0.50
2019-03-10T09:48:16.958Z,0.60
2019-03-10T09:51:12.008Z,0.40
2019-03-10T09:53:57.405Z,0.50
2019-03-10T09:56:27.627Z,0.40
2019-03-10T09:58:57.699Z,0.50
2019-03-10T10:01:46.170Z,0.50
2019-03-10T10:04:31.757Z,0.40
2019-03-10T10:07:14.072Z,0.40
2019-03-10T10:09:50.259Z,0.50
2019-03-10T10:12:20.416Z,0.77
2019-03-10T10:14:53.508Z,0.50
2019-03-10T10:17:41.433Z,0.50
2019-03-10T10:20:14.716Z,0.60
2019-03-10T10:22:47.589Z,0.50
2019-03-10T10:25:20.668Z,0.50
2019-03-10T10:27:56.722Z,1.10
2019-03-10T10:30:26.838Z,0.93
2019-03-10T10:33:09.261Z,0.60
2019-03-10T10:35:48.549Z,0.40
2019-03-10T10:38:19.269Z,0.70
2019-03-10T10:40:59.938Z,0.63
2019-03-10T10:43:35.819Z,0.70
2019-03-10T10:46:18.498Z,0.50
2019-03-10T10:48:57.999Z,0.60
2019-03-10T10:51:31.120Z,0.50
2019-03-10T10:54:04.265Z,0.50
2019-03-10T10:56:49.415Z,0.50
2019-03-10T10:59:37.883Z,0.63
2019-03-10T11:02:17.510Z,0.50
2019-03-10T11:05:03.799Z,0.57
2019-03-10T11:07:46.153Z,0.50
2019-03-10T11:10:28.544Z,0.40
2019-03-10T11:13:10.402Z,0.47
2019-03-10T11:15:40.577Z,0.73
2019-03-10T11:18:10.712Z,0.50
2019-03-10T11:20:52.461Z,0.50
2019-03-10T11:23:25.346Z,0.70
2019-03-10T11:25:58.152Z,0.60
2019-03-10T11:28:44.697Z,0.67
2019-03-10T11:31:14.896Z,0.40
2019-03-10T11:33:50.691Z,0.50
2019-03-10T11:36:23.768Z,0.50
2019-03-10T11:38:56.575Z,0.97
2019-03-10T11:41:33.848Z,0.60
2019-03-10T11:44:14.488Z,0.50
2019-03-10T11:46:44.565Z,0.60
2019-03-10T11:49:15.706Z,0.50
2019-03-10T11:51:54.804Z,0.53
2019-03-10T11:54:25.103Z,0.60
2019-03-10T11:56:55.373Z,0.50
2019-03-10T11:59:28.751Z,0.50
2019-03-10T12:02:01.742Z,0.50
2019-03-10T12:04:31.900Z,0.40
2019-03-10T12:07:02.112Z,0.67
2019-03-10T12:09:30.554Z,0.43
2019-03-10T12:11:59.015Z,0.40
2019-03-10T12:14:27.519Z,0.50
2019-03-10T12:16:56.307Z,0.83
2019-03-10T12:19:25.071Z,0.50
2019-03-10T12:21:55.968Z,0.50
2019-03-10T12:24:24.199Z,0.50
2019-03-10T12:26:52.735Z,0.40
2019-03-10T12:29:21.239Z,0.50
2019-03-10T12:31:50.502Z,0.50
2019-03-10T12:34:19.098Z,0.50
2019-03-10T12:36:47.642Z,0.50
2019-03-10T12:39:17.178Z,0.60
2019-03-10T12:41:45.771Z,0.40
2019-03-10T12:44:14.257Z,0.60
2019-03-10T12:46:42.749Z,0.40
2019-03-10T12:49:11.310Z,0.40
2019-03-10T12:51:39.885Z,0.70
2019-03-10T12:54:08.454Z,0.40
2019-03-10T12:56:37.086Z,0.70
2019-03-10T12:59:05.859Z,0.40
2019-03-10T13:01:34.955Z,0.50
2019-03-10T13:04:03.449Z,0.60
2019-03-10T13:06:32.027Z,0.40
2019-03-10T13:09:03.018Z,0.40
2019-03-10T13:11:31.676Z,0.40
2019-03-10T13:14:01.238Z,0.50
2019-03-10T13:16:29.747Z,0.50
2019-03-10T13:18:58.255Z,0.50
2019-03-10T13:21:26.986Z,0.40
2019-03-10T13:23:55.853Z,0.50
2019-03-10T13:26:24.530Z,0.50
2019-03-10T13:28:53.049Z,0.40
2019-03-10T13:31:21.569Z,0.30
2019-03-10T13:33:50.566Z,0.40
2019-03-10T13:36:19.124Z,0.40
2019-03-10T13:38:47.620Z,0.40
2019-03-10T13:41:16.411Z,0.50
2019-03-10T13:43:44.973Z,0.40
2019-03-10T13:46:13.766Z,0.40
2019-03-10T13:48:42.348Z,0.40
2019-03-10T13:51:11.065Z,0.40
2019-03-10T13:53:39.751Z,0.50
2019-03-10T13:56:08.172Z,0.50
2019-03-10T13:58:37.846Z,0.40
2019-03-10T14:01:07.411Z,0.37
2019-03-10T14:03:36.102Z,0.40
2019-03-10T14:06:04.468Z,0.40
2019-03-10T14:08:34.114Z,1.43
2019-03-10T14:11:02.335Z,0.47
2019-03-10T14:13:31.115Z,0.40
2019-03-10T14:15:59.631Z,0.50
2019-03-10T14:18:28.095Z,0.40
2019-03-10T14:20:56.786Z,0.43
2019-03-10T14:23:25.294Z,0.40
2019-03-10T14:25:54.030Z,0.60
2019-03-10T14:28:22.630Z,0.40
2019-03-10T14:30:50.933Z,0.40
2019-03-10T14:33:19.469Z,0.40
2019-03-10T14:35:47.897Z,0.40
2019-03-10T14:38:16.176Z,0.40
2019-03-10T14:40:44.759Z,0.40
2019-03-10T14:43:13.254Z,0.50
2019-03-10T14:45:41.681Z,0.43
2019-03-10T14:48:10.217Z,0.40
2019-03-10T14:50:38.830Z,0.40
2019-03-10T14:53:07.415Z,0.40
2019-03-10T14:55:35.849Z,0.40
2019-03-10T14:58:04.330Z,0.50
2019-03-10T15:00:32.849Z,0.40
2019-03-10T15:03:01.490Z,0.40
2019-03-10T15:05:30.051Z,0.40
2019-03-10T15:07:59.533Z,0.30
2019-03-10T15:10:28.021Z,0.40
2019-03-10T15:12:56.446Z,0.40
2019-03-10T15:15:24.596Z,0.40
2019-03-10T15:17:53.025Z,0.40
2019-03-10T15:20:22.027Z,0.50
2019-03-10T15:22:50.708Z,0.40
2019-03-10T15:25:25.020Z,0.40
2019-03-10T15:27:53.017Z,0.50
2019-03-10T15:30:23.369Z,0.40
2019-03-10T15:32:51.840Z,0.50
2019-03-10T15:35:20.486Z,0.40
2019-03-10T15:37:49.925Z,0.50
2019-03-10T15:40:19.002Z,0.40
2019-03-10T15:42:47.791Z,0.50
2019-03-10T15:45:17.353Z,0.50
2019-03-10T15:47:46.086Z,0.40
2019-03-10T15:50:28.773Z,0.60
2019-03-10T15:52:57.215Z,0.60
2019-03-10T15:55:25.713Z,0.50
2019-03-10T15:57:54.142Z,0.60
2019-03-10T16:00:23.930Z,0.60
2019-03-10T16:02:52.423Z,0.50
2019-03-10T16:05:20.844Z,0.73
2019-03-10T16:07:49.267Z,0.40
2019-03-10T16:10:17.719Z,0.53
2019-03-10T16:12:46.174Z,0.70
2019-03-10T16:15:19.853Z,0.50
2019-03-10T16:17:48.330Z,0.70
2019-03-10T16:20:16.787Z,0.70
2019-03-10T16:22:45.215Z,0.43
2019-03-10T16:25:14.881Z,0.57
2019-03-10T16:27:43.531Z,0.50
2019-03-10T16:30:20.278Z,0.50
2019-03-10T16:32:49.110Z,0.60
2019-03-10T16:35:17.655Z,0.60
2019-03-10T16:37:46.175Z,0.53
2019-03-10T16:40:16.592Z,0.70
2019-03-10T16:42:45.015Z,1.00
2019-03-10T16:45:18.376Z,0.57
2019-03-10T16:47:46.793Z,0.70
2019-03-10T16:50:22.854Z,0.53
2019-03-10T16:52:51.263Z,0.40
2019-03-10T16:55:19.774Z,0.50
2019-03-10T16:57:48.224Z,0.90
2019-03-10T17:00:19.465Z,0.57
2019-03-10T17:02:48.059Z,0.70
2019-03-10T17:05:22.844Z,1.47
2019-03-10T17:07:51.695Z,0.60
2019-03-10T17:10:27.014Z,0.73
2019-03-10T17:12:55.523Z,0.57
2019-03-10T17:15:25.074Z,0.50
2019-03-10T17:17:53.816Z,0.50
2019-03-10T17:20:22.342Z,0.63
2019-03-10T17:22:50.767Z,0.50
2019-03-10T17:25:19.270Z,0.77
2019-03-10T17:27:47.693Z,0.43
2019-03-10T17:30:19.841Z,1.10
2019-03-10T17:32:48.418Z,0.87
2019-03-10T17:35:17.906Z,0.50
2019-03-10T17:37:48.771Z,0.70
2019-03-10T17:40:25.706Z,1.00
2019-03-10T17:42:54.220Z,0.60
2019-03-10T17:45:23.781Z,0.50
2019-03-10T17:47:52.218Z,0.63
2019-03-10T17:50:20.879Z,0.97
2019-03-10T17:52:49.837Z,0.73
2019-03-10T17:55:20.518Z,0.80
2019-03-10T17:57:49.083Z,0.40
2019-03-10T18:00:20.067Z,0.70
2019-03-10T18:02:48.593Z,0.73
2019-03-10T18:05:17.008Z,0.80
2019-03-10T18:07:45.461Z,0.70
2019-03-10T18:10:17.929Z,0.70
2019-03-10T18:12:46.507Z,0.90
2019-03-10T18:15:16.694Z,1.00
2019-03-10T18:17:45.286Z,0.87
2019-03-10T18:20:16.598Z,0.70
2019-03-10T18:22:45.057Z,1.00
2019-03-10T18:25:14.708Z,1.20
2019-03-10T18:27:43.263Z,0.90
2019-03-10T18:30:14.772Z,0.90
2019-03-10T18:32:43.217Z,1.00
2019-03-10T18:35:11.658Z,1.00
2019-03-10T18:37:40.067Z,0.83
2019-03-10T18:40:11.578Z,1.30
2019-03-10T18:42:40.023Z,0.80
2019-03-10T18:45:11.603Z,0.97
2019-03-10T18:47:40.026Z,0.87
2019-03-10T18:50:11.356Z,1.00
2019-03-10T18:52:39.780Z,0.87
2019-03-10T18:55:10.850Z,1.07
2019-03-10T18:57:39.295Z,0.90
2019-03-10T19:00:10.844Z,1.07
2019-03-10T19:02:39.271Z,1.57
2019-03-10T19:05:08.823Z,1.23
2019-03-10T19:07:37.253Z,1.67
2019-03-10T19:10:08.889Z,1.47
2019-03-10T19:12:37.301Z,1.10
2019-03-10T19:15:14.587Z,1.67
2019-03-10T19:17:43.009Z,1.10
2019-03-10T19:20:13.526Z,1.10
2019-03-10T19:22:41.981Z,0.97
2019-03-10T19:25:12.143Z,0.90
2019-03-10T19:27:40.566Z,1.07
2019-03-10T19:30:11.815Z,1.83
2019-03-10T19:32:40.237Z,1.13
2019-03-10T19:35:10.325Z,1.43
2019-03-10T19:37:39.091Z,1.10
2019-03-10T19:40:10.559Z,1.43
2019-03-10T19:42:38.987Z,1.10
2019-03-10T19:45:16.332Z,0.87
2019-03-10T19:47:44.742Z,1.00
2019-03-10T19:50:15.878Z,1.10
2019-03-10T19:52:44.327Z,1.70
2019-03-10T19:55:15.763Z,1.50
2019-03-10T19:57:44.188Z,1.47
2019-03-10T20:00:16.914Z,1.40
2019-03-10T20:02:45.560Z,0.90
2019-03-10T20:05:14.703Z,1.00
2019-03-10T20:07:43.729Z,1.20
2019-03-10T20:10:18.215Z,1.37
2019-03-10T20:12:46.712Z,0.90
2019-03-10T20:15:17.007Z,0.90
2019-03-10T20:17:45.699Z,1.13
2019-03-10T20:20:16.667Z,1.30
2019-03-10T20:22:45.195Z,1.70
2019-03-10T20:25:15.156Z,1.27
2019-03-10T20:27:43.905Z,1.80
2019-03-10T20:30:17.644Z,1.60
2019-03-10T20:32:46.056Z,2.20
2019-03-10T20:35:14.563Z,2.13
2019-03-10T20:37:42.985Z,2.47
2019-03-10T20:40:14.119Z,2.23
2019-03-10T20:42:42.537Z,2.83
2019-03-10T20:45:11.523Z,2.80
2019-03-10T20:47:39.959Z,2.87
2019-03-10T20:50:16.410Z,2.90
2019-03-10T20:52:44.885Z,1.50
2019-03-10T20:55:13.966Z,2.53
2019-03-10T20:57:42.537Z,2.60
2019-03-10T21:00:24.345Z,2.60
2019-03-10T21:02:53.014Z,2.63
2019-03-10T21:05:21.438Z,2.80
2019-03-10T21:07:49.852Z,2.70
2019-03-10T21:10:20.647Z,2.80
2019-03-10T21:12:49.067Z,2.20
2019-03-10T21:15:21.545Z,1.50
2019-03-10T21:17:50.219Z,1.50
2019-03-10T21:20:23.144Z,1.40
2019-03-10T21:22:51.553Z,1.07
2019-03-10T21:25:30.846Z,1.00
2019-03-10T21:27:59.531Z,1.20
2019-03-10T21:30:29.877Z,1.13
2019-03-10T21:32:58.284Z,1.20
2019-03-10T21:35:26.700Z,0.77
2019-03-10T21:37:55.146Z,0.80
2019-03-10T21:40:26.645Z,0.67
2019-03-10T21:42:55.053Z,0.90
2019-03-10T21:45:23.634Z,0.90
2019-03-10T21:47:52.025Z,0.80
2019-03-10T21:50:20.459Z,1.10
2019-03-10T21:52:48.876Z,1.10
2019-03-10T21:55:17.932Z,1.27
2019-03-10T21:57:46.380Z,0.87
2019-03-10T22:00:18.782Z,1.50
2019-03-10T22:02:47.478Z,0.97
2019-03-10T22:05:16.834Z,1.10
2019-03-10T22:07:45.341Z,1.33
2019-03-10T22:10:26.405Z,1.20
2019-03-10T22:12:48.278Z,1.47
2019-03-10T22:15:17.846Z,1.33
2019-03-10T22:17:46.328Z,1.50
2019-03-10T22:20:18.313Z,0.70
2019-03-10T22:22:49.402Z,1.40
2019-03-10T22:25:17.155Z,0.90
2019-03-10T22:27:46.453Z,1.87
2019-03-10T22:30:24.157Z,1.03
2019-03-10T22:32:52.578Z,2.17
2019-03-10T22:35:20.988Z,1.10
2019-03-10T22:37:49.409Z,2.70
2019-03-10T22:40:18.477Z,1.33
2019-03-10T22:42:47.029Z,1.37
2019-03-10T22:45:19.514Z,1.00
2019-03-10T22:47:48.230Z,1.40
2019-03-10T22:50:17.011Z,1.50
2019-03-10T22:52:45.978Z,1.00
2019-03-10T22:55:16.425Z,0.90
2019-03-10T22:57:44.857Z,1.63
2019-03-10T23:00:19.309Z,1.20
2019-03-10T23:02:47.969Z,1.27
2019-03-10T23:05:16.906Z,1.37
2019-03-10T23:07:45.585Z,0.97
2019-03-10T23:10:17.046Z,2.20
2019-03-10T23:12:45.465Z,1.43
2019-03-10T23:15:14.511Z,1.40
2019-03-10T23:17:42.998Z,1.10
2019-03-10T23:20:15.564Z,1.03
2019-03-10T23:22:44.080Z,1.63
2019-03-10T23:25:12.717Z,1.50
2019-03-10T23:27:41.215Z,1.60
2019-03-10T23:30:16.837Z,1.60
2019-03-10T23:32:45.279Z,1.33
2019-03-10T23:35:13.781Z,0.83
2019-03-10T23:37:42.275Z,1.30
2019-03-10T23:40:16.316Z,1.40
2019-03-10T23:42:44.728Z,1.30
2019-03-10T23:45:15.541Z,1.10
2019-03-10T23:47:43.969Z,1.40
2019-03-10T23:50:17.267Z,1.33
2019-03-10T23:52:45.915Z,2.17
2019-03-10T23:55:14.929Z,1.53
2019-03-10T23:57:43.461Z,1.83
